Time,TemperatureF,DewpointF,PressureIn,WindDirection,WindDirectionDegrees,WindSpeedMPH,WindSpeedGustMPH,Humidity,HourlyPrecipIn,Conditions,Clouds,dailyrainin,SoftwareType,DateUTC
2013-09-29 00:13:00,58.0,57.0,29.95,West,268,2.0,-999.0,95,-99.99,,,-99.99,,2013-09-29 05:13:00,
2013-09-29 00:22:00,58.0,57.0,29.95,West,281,2.0,-999.0,95,-99.99,,,-99.99,,2013-09-29 05:22:00,
2013-09-29 00:53:00,57.0,56.0,29.97,WNW,292,1.0,-999.0,95,-99.99,,,-99.99,,2013-09-29 05:53:00,
2013-09-29 01:12:00,57.0,56.0,29.98,WNW,291,1.0,-999.0,95,-99.99,,,-99.99,,2013-09-29 06:12:00,
2013-09-29 01:22:00,56.0,55.0,29.98,West,281,0.0,-999.0,95,-99.99,,,-99.99,,2013-09-29 06:22:00,
2013-09-29 01:42:00,56.0,55.0,29.98,WNW,298,0.0,-999.0,95,-99.99,,,-99.99,,2013-09-29 06:42:00,
2013-09-29 01:52:00,55.0,54.0,29.98,WNW,296,0.0,-999.0,96,-99.99,,,-99.99,,2013-09-29 06:52:00,
2013-09-29 02:11:00,55.0,54.0,29.98,West,262,0.0,-999.0,96,-99.99,,,-99.99,,2013-09-29 07:11:00,
2013-09-29 02:22:00,54.0,53.0,29.98,West,281,0.0,-999.0,96,-99.99,,,-99.99,,2013-09-29 07:22:00,
2013-09-29 02:43:00,54.0,53.0,29.98,West,281,0.0,-999.0,96,-99.99,,,-99.99,,2013-09-29 07:43:00,
2013-09-29 02:52:00,53.0,52.0,29.98,West,281,0.0,-999.0,96,-99.99,,,-99.99,,2013-09-29 07:52:00,
2013-09-29 03:12:00,53.0,52.0,29.98,West,281,0.0,-999.0,96,-99.99,,,-99.99,,2013-09-29 08:12:00,
2013-09-29 03:22:00,52.0,51.0,29.98,West,281,0.0,-999.0,96,-99.99,,,-99.99,,2013-09-29 08:22:00,
2013-09-29 03:42:00,52.0,51.0,29.98,West,281,0.0,-999.0,96,-99.99,,,-99.99,,2013-09-29 08:42:00,
2013-09-29 03:52:00,51.0,50.0,29.98,West,281,0.0,-999.0,96,-99.99,,,-99.99,,2013-09-29 08:52:00,
2013-09-29 04:11:00,51.0,50.0,29.99,West,281,0.0,-999.0,97,-99.99,,,-99.99,,2013-09-29 09:11:00,
2013-09-29 04:22:00,52.0,51.0,29.99,West,278,0.0,-999.0,97,-99.99,,,-99.99,,2013-09-29 09:22:00,
2013-09-29 04:43:00,52.0,51.0,29.99,West,276,0.0,-999.0,97,-99.99,,,-99.99,,2013-09-29 09:43:00,
2013-09-29 04:53:00,52.0,51.0,30.00,WNW,284,0.0,-999.0,98,-99.99,,,-99.99,,2013-09-29 09:53:00,
2013-09-29 05:12:00,52.0,51.0,29.99,WNW,283,0.0,-999.0,97,-99.99,,,-99.99,,2013-09-29 10:12:00,
2013-09-29 05:23:00,52.0,51.0,30.00,West,281,0.0,-999.0,98,-99.99,,,-99.99,,2013-09-29 10:23:00,
2013-09-29 05:43:00,51.0,50.0,30.00,West,281,0.0,-999.0,98,-99.99,,,-99.99,,2013-09-29 10:43:00,
2013-09-29 05:53:00,51.0,50.0,30.00,West,281,0.0,-999.0,98,-99.99,,,-99.99,,2013-09-29 10:53:00,
2013-09-29 06:12:00,51.0,50.0,30.01,West,281,0.0,-999.0,98,-99.99,,,-99.99,,2013-09-29 11:12:00,
2013-09-29 06:22:00,51.0,50.0,30.01,West,281,0.0,-999.0,98,-99.99,,,-99.99,,2013-09-29 11:22:00,
2013-09-29 06:33:00,51.0,50.0,30.01,West,281,0.0,-999.0,98,-99.99,,,-99.99,,2013-09-29 11:33:00,
2013-09-29 06:52:00,51.0,50.0,30.02,West,281,0.0,-999.0,98,-99.99,,,-99.99,,2013-09-29 11:52:00,
2013-09-29 07:12:00,50.0,49.0,30.02,West,281,0.0,-999.0,98,-99.99,,,-99.99,,2013-09-29 12:12:00,
2013-09-29 07:21:00,50.0,49.0,30.02,West,281,0.0,-999.0,98,-99.99,,,-99.99,,2013-09-29 12:21:00,
2013-09-29 07:52:00,50.0,49.0,30.03,NNW,327,0.0,-999.0,98,-99.99,,,-99.99,,2013-09-29 12:52:00,
2013-09-29 08:11:00,50.0,49.0,30.03,WSW,254,0.0,-999.0,98,-99.99,,,-99.99,,2013-09-29 13:11:00,
2013-09-29 08:22:00,50.0,49.0,30.03,West,267,0.0,-999.0,98,-99.99,,,-99.99,,2013-09-29 13:22:00,
2013-09-29 08:53:00,51.0,50.0,30.04,West,267,0.0,-999.0,98,-99.99,,,-99.99,,2013-09-29 13:53:00,
2013-09-29 09:12:00,51.0,50.0,30.04,West,267,0.0,-999.0,98,-99.99,,,-99.99,,2013-09-29 14:12:00,
2013-09-29 09:21:00,52.0,51.0,30.04,West,267,0.0,-999.0,98,-99.99,,,-99.99,,2013-09-29 14:21:00,
2013-09-29 09:43:00,52.0,51.0,30.04,WNW,290,0.0,-999.0,98,-99.99,,,-99.99,,2013-09-29 14:43:00,
2013-09-29 09:52:00,52.0,51.0,30.05,West,263,0.0,-999.0,98,-99.99,,,-99.99,,2013-09-29 14:52:00,
2013-09-29 10:12:00,54.0,54.0,30.05,West,266,0.0,-999.0,99,-99.99,,,-99.99,,2013-09-29 15:12:00,
2013-09-29 10:22:00,54.0,54.0,30.05,NW,316,0.0,-999.0,99,-99.99,,,-99.99,,2013-09-29 15:22:00,
2013-09-29 10:45:00,55.0,54.0,30.05,WNW,284,0.0,-999.0,98,-99.99,,,-99.99,,2013-09-29 15:45:00,
2013-09-29 10:54:00,57.0,54.0,30.05,WNW,283,0.0,-999.0,91,-99.99,,,-99.99,,2013-09-29 15:54:00,
2013-09-29 11:14:00,59.0,54.0,30.06,WNW,286,0.0,-999.0,85,-99.99,,,-99.99,,2013-09-29 16:14:00,
2013-09-29 11:24:00,61.0,52.0,30.06,NNW,328,0.0,-999.0,73,-99.99,,,-99.99,,2013-09-29 16:24:00,
2013-09-29 11:44:00,62.0,50.0,30.06,NNW,346,1.0,-999.0,65,-99.99,,,-99.99,,2013-09-29 16:44:00,
2013-09-29 11:54:00,63.0,50.0,30.05,NNW,338,1.0,-999.0,63,-99.99,,,-99.99,,2013-09-29 16:54:00,
2013-09-29 12:12:00,64.0,48.0,30.05,NW,304,1.0,-999.0,56,-99.99,,,-99.99,,2013-09-29 17:12:00,
2013-09-29 12:24:00,65.0,48.0,30.05,NNW,329,1.0,-999.0,54,-99.99,,,-99.99,,2013-09-29 17:24:00,
2013-09-29 12:43:00,65.0,46.0,30.04,North,350,1.0,-999.0,51,-99.99,,,-99.99,,2013-09-29 17:43:00,
2013-09-29 12:52:00,66.0,48.0,30.04,East,94,2.0,-999.0,52,-99.99,,,-99.99,,2013-09-29 17:52:00,
2013-09-29 13:13:00,66.0,46.0,30.04,NE,45,1.0,-999.0,49,-99.99,,,-99.99,,2013-09-29 18:13:00,
2013-09-29 13:22:00,67.0,46.0,30.03,North,349,1.0,-999.0,46,-99.99,,,-99.99,,2013-09-29 18:22:00,
2013-09-29 13:42:00,67.0,46.0,30.03,East,92,1.0,-999.0,47,-99.99,,,-99.99,,2013-09-29 18:42:00,
2013-09-29 13:52:00,68.0,46.0,30.01,East,97,0.0,-999.0,45,-99.99,,,-99.99,,2013-09-29 18:52:00,
2013-09-29 14:11:00,68.0,43.0,30.01,ESE,103,1.0,-999.0,41,-99.99,,,-99.99,,2013-09-29 19:11:00,
2013-09-29 14:22:00,69.0,45.0,30.00,NW,319,0.0,-999.0,42,-99.99,,,-99.99,,2013-09-29 19:22:00,
2013-09-29 14:42:00,69.0,44.0,30.00,NE,51,1.0,-999.0,40,-99.99,,,-99.99,,2013-09-29 19:42:00,
2013-09-29 14:52:00,70.0,45.0,29.99,ENE,61,1.0,-999.0,40,-99.99,,,-99.99,,2013-09-29 19:52:00,
2013-09-29 15:12:00,70.0,45.0,29.99,ENE,65,2.0,-999.0,40,-99.99,,,-99.99,,2013-09-29 20:12:00,
2013-09-29 15:22:00,70.0,44.0,29.98,NNE,13,0.0,-999.0,39,-99.99,,,-99.99,,2013-09-29 20:22:00,
2013-09-29 15:43:00,71.0,45.0,29.98,NE,39,0.0,-999.0,40,-99.99,,,-99.99,,2013-09-29 20:43:00,
2013-09-29 15:52:00,71.0,44.0,29.98,NE,41,1.0,-999.0,38,-99.99,,,-99.99,,2013-09-29 20:52:00,
2013-09-29 16:11:00,71.0,43.0,29.98,NNE,17,1.0,-999.0,37,-99.99,,,-99.99,,2013-09-29 21:11:00,
2013-09-29 16:21:00,70.0,45.0,29.98,NE,51,1.0,-999.0,40,-99.99,,,-99.99,,2013-09-29 21:21:00,
2013-09-29 16:44:00,71.0,45.0,29.98,NNE,23,0.0,-999.0,39,-99.99,,,-99.99,,2013-09-29 21:44:00,
2013-09-29 16:54:00,71.0,44.0,29.98,ENE,74,0.0,-999.0,38,-99.99,,,-99.99,,2013-09-29 21:54:00,
2013-09-29 17:14:00,71.0,43.0,29.98,ENE,63,0.0,-999.0,37,-99.99,,,-99.99,,2013-09-29 22:14:00,
2013-09-29 17:24:00,70.0,45.0,29.97,ENE,59,0.0,-999.0,40,-99.99,,,-99.99,,2013-09-29 22:24:00,
2013-09-29 17:53:00,70.0,43.0,29.97,ENE,58,0.0,-999.0,38,-99.99,,,-99.99,,2013-09-29 22:53:00,
2013-09-29 18:12:00,69.0,44.0,29.97,ENE,76,0.0,-999.0,40,-99.99,,,-99.99,,2013-09-29 23:12:00,
2013-09-29 18:23:00,69.0,44.0,29.97,ENE,59,0.0,-999.0,41,-99.99,,,-99.99,,2013-09-29 23:23:00,
2013-09-29 18:43:00,68.0,45.0,29.97,ENE,59,0.0,-999.0,44,-99.99,,,-99.99,,2013-09-29 23:43:00,
2013-09-29 18:53:00,66.0,45.0,29.97,ENE,59,0.0,-999.0,47,-99.99,,,-99.99,,2013-09-29 23:53:00,
2013-09-29 19:11:00,65.0,47.0,29.97,ENE,59,0.0,-999.0,52,-99.99,,,-99.99,,2013-09-30 00:11:00,
2013-09-29 19:22:00,62.0,46.0,29.96,ENE,59,0.0,-999.0,56,-99.99,,,-99.99,,2013-09-30 00:22:00,
2013-09-29 19:42:00,60.0,47.0,29.97,ENE,59,0.0,-999.0,61,-99.99,,,-99.99,,2013-09-30 00:42:00,
2013-09-29 19:52:00,59.0,46.0,29.97,ENE,59,0.0,-999.0,63,-99.99,,,-99.99,,2013-09-30 00:52:00,
2013-09-29 20:11:00,56.0,46.0,29.97,ENE,59,0.0,-999.0,70,-99.99,,,-99.99,,2013-09-30 01:11:00,
2013-09-29 20:22:00,55.0,47.0,29.97,ENE,59,0.0,-999.0,73,-99.99,,,-99.99,,2013-09-30 01:22:00,
2013-09-29 20:42:00,53.0,46.0,29.97,ENE,59,0.0,-999.0,76,-99.99,,,-99.99,,2013-09-30 01:42:00,
2013-09-29 20:52:00,52.0,46.0,29.98,ENE,59,0.0,-999.0,80,-99.99,,,-99.99,,2013-09-30 01:52:00,
2013-09-29 21:12:00,52.0,47.0,29.98,ENE,59,0.0,-999.0,82,-99.99,,,-99.99,,2013-09-30 02:12:00,
2013-09-29 21:22:00,52.0,47.0,29.98,ENE,59,0.0,-999.0,82,-99.99,,,-99.99,,2013-09-30 02:22:00,
2013-09-29 21:42:00,51.0,46.0,29.98,ENE,59,0.0,-999.0,82,-99.99,,,-99.99,,2013-09-30 02:42:00,
2013-09-29 21:52:00,51.0,46.0,29.98,ENE,59,0.0,-999.0,83,-99.99,,,-99.99,,2013-09-30 02:52:00,
2013-09-29 22:12:00,50.0,45.0,29.98,ENE,59,0.0,-999.0,84,-99.99,,,-99.99,,2013-09-30 03:12:00,
2013-09-29 22:22:00,50.0,46.0,29.98,ENE,59,0.0,-999.0,85,-99.99,,,-99.99,,2013-09-30 03:22:00,
2013-09-29 22:44:00,50.0,46.0,29.98,ENE,59,0.0,-999.0,86,-99.99,,,-99.99,,2013-09-30 03:44:00,
2013-09-29 22:55:00,50.0,46.0,29.98,ENE,59,0.0,-999.0,86,-99.99,,,-99.99,,2013-09-30 03:55:00,
2013-09-29 23:14:00,49.0,45.0,29.98,ENE,59,0.0,-999.0,87,-99.99,,,-99.99,,2013-09-30 04:14:00,
2013-09-29 23:25:00,49.0,45.0,29.98,ENE,59,0.0,-999.0,87,-99.99,,,-99.99,,2013-09-30 04:25:00,
2013-09-29 23:44:00,49.0,45.0,29.98,ENE,59,0.0,-999.0,86,-99.99,,,-99.99,,2013-09-30 04:44:00,
2013-09-29 23:53:00,49.0,45.0,29.98,ENE,59,0.0,-999.0,86,-99.99,,,-99.99,,2013-09-30 04:53:00,